sensor_id;sensor_type;location;lat;lon;timestamp;P1;durP1;ratioP1;P2;durP2;ratioP2
23449;SDS011;11897;45.438;12.128;2023-02-27T00:01:13;0.20;;;0.20;;
23449;SDS011;11897;45.438;12.128;2023-02-27T00:03:40;0.30;;;0.30;;
23449;SDS011;11897;45.438;12.128;2023-02-27T00:06:11;0.20;;;0.20;;
23449;SDS011;11897;45.438;12.128;2023-02-27T00:08:43;1.00;;;0.73;;
23449;SDS011;11897;45.438;12.128;2023-02-27T00:11:14;0.50;;;0.23;;
23449;SDS011;11897;45.438;12.128;2023-02-27T00:13:44;0.63;;;0.33;;
23449;SDS011;11897;45.438;12.128;2023-02-27T00:16:15;0.20;;;0.20;;
23449;SDS011;11897;45.438;12.128;2023-02-27T00:18:46;0.80;;;0.67;;
23449;SDS011;11897;45.438;12.128;2023-02-27T00:21:14;0.27;;;0.20;;
23449;SDS011;11897;45.438;12.128;2023-02-27T00:23:42;0.43;;;0.30;;
23449;SDS011;11897;45.438;12.128;2023-02-27T00:26:09;0.37;;;0.23;;
23449;SDS011;11897;45.438;12.128;2023-02-27T00:28:36;0.83;;;0.60;;
23449;SDS011;11897;45.438;12.128;2023-02-27T00:31:03;0.20;;;0.20;;
23449;SDS011;11897;45.438;12.128;2023-02-27T00:33:31;0.20;;;0.20;;
23449;SDS011;11897;45.438;12.128;2023-02-27T00:35:59;0.77;;;0.30;;
23449;SDS011;11897;45.438;12.128;2023-02-27T00:38:26;0.50;;;0.33;;
23449;SDS011;11897;45.438;12.128;2023-02-27T00:40:56;0.27;;;0.27;;
23449;SDS011;11897;45.438;12.128;2023-02-27T00:43:22;2.40;;;0.30;;
23449;SDS011;11897;45.438;12.128;2023-02-27T00:45:49;0.20;;;0.20;;
23449;SDS011;11897;45.438;12.128;2023-02-27T00:48:15;0.20;;;0.20;;
23449;SDS011;11897;45.438;12.128;2023-02-27T00:50:43;0.10;;;0.10;;
23449;SDS011;11897;45.438;12.128;2023-02-27T00:53:11;0.30;;;0.30;;
23449;SDS011;11897;45.438;12.128;2023-02-27T00:55:37;0.30;;;0.30;;
23449;SDS011;11897;45.438;12.128;2023-02-27T00:58:04;2.97;;;0.30;;
23449;SDS011;11897;45.438;12.128;2023-02-27T01:00:31;0.30;;;0.20;;
23449;SDS011;11897;45.438;12.128;2023-02-27T01:02:58;0.80;;;0.40;;
23449;SDS011;11897;45.438;12.128;2023-02-27T01:05:26;0.20;;;0.20;;
23449;SDS011;11897;45.438;12.128;2023-02-27T01:08:00;1.13;;;0.20;;
23449;SDS011;11897;45.438;12.128;2023-02-27T01:10:29;0.43;;;0.37;;
23449;SDS011;11897;45.438;12.128;2023-02-27T01:12:57;0.20;;;0.20;;
23449;SDS011;11897;45.438;12.128;2023-02-27T01:15:25;0.40;;;0.23;;
23449;SDS011;11897;45.438;12.128;2023-02-27T01:17:52;0.57;;;0.27;;
23449;SDS011;11897;45.438;12.128;2023-02-27T01:20:19;0.23;;;0.20;;
23449;SDS011;11897;45.438;12.128;2023-02-27T01:22:48;0.30;;;0.20;;
23449;SDS011;11897;45.438;12.128;2023-02-27T01:25:18;0.50;;;0.30;;
23449;SDS011;11897;45.438;12.128;2023-02-27T01:27:45;0.53;;;0.20;;
23449;SDS011;11897;45.438;12.128;2023-02-27T01:30:12;0.30;;;0.30;;
23449;SDS011;11897;45.438;12.128;2023-02-27T01:32:40;0.30;;;0.30;;
23449;SDS011;11897;45.438;12.128;2023-02-27T01:35:09;0.30;;;0.27;;
23449;SDS011;11897;45.438;12.128;2023-02-27T01:37:37;0.30;;;0.30;;
23449;SDS011;11897;45.438;12.128;2023-02-27T01:40:04;0.20;;;0.20;;
23449;SDS011;11897;45.438;12.128;2023-02-27T01:42:33;0.30;;;0.30;;
23449;SDS011;11897;45.438;12.128;2023-02-27T01:45:02;0.30;;;0.20;;
23449;SDS011;11897;45.438;12.128;2023-02-27T01:47:31;0.60;;;0.30;;
23449;SDS011;11897;45.438;12.128;2023-02-27T01:49:58;0.30;;;0.30;;
23449;SDS011;11897;45.438;12.128;2023-02-27T01:52:25;0.30;;;0.30;;
23449;SDS011;11897;45.438;12.128;2023-02-27T01:54:52;0.23;;;0.23;;
23449;SDS011;11897;45.438;12.128;2023-02-27T01:57:21;0.20;;;0.20;;
23449;SDS011;11897;45.438;12.128;2023-02-27T01:59:49;0.27;;;0.27;;
23449;SDS011;11897;45.438;12.128;2023-02-27T02:02:18;0.50;;;0.40;;
23449;SDS011;11897;45.438;12.128;2023-02-27T02:04:48;0.50;;;0.40;;
23449;SDS011;11897;45.438;12.128;2023-02-27T02:07:19;0.20;;;0.20;;
23449;SDS011;11897;45.438;12.128;2023-02-27T02:09:47;0.20;;;0.20;;
23449;SDS011;11897;45.438;12.128;2023-02-27T02:12:15;0.20;;;0.20;;
23449;SDS011;11897;45.438;12.128;2023-02-27T02:14:43;0.10;;;0.10;;
23449;SDS011;11897;45.438;12.128;2023-02-27T02:17:16;0.60;;;0.47;;
23449;SDS011;11897;45.438;12.128;2023-02-27T02:22:39;0.20;;;0.20;;
23449;SDS011;11897;45.438;12.128;2023-02-27T02:25:30;0.60;;;0.33;;
23449;SDS011;11897;45.438;12.128;2023-02-27T02:28:02;0.20;;;0.20;;
23449;SDS011;11897;45.438;12.128;2023-02-27T02:30:37;0.20;;;0.20;;
23449;SDS011;11897;45.438;12.128;2023-02-27T02:36:30;0.67;;;0.30;;
23449;SDS011;11897;45.438;12.128;2023-02-27T02:42:05;0.23;;;0.23;;
23449;SDS011;11897;45.438;12.128;2023-02-27T02:44:39;0.50;;;0.20;;
23449;SDS011;11897;45.438;12.128;2023-02-27T02:47:10;0.20;;;0.20;;
23449;SDS011;11897;45.438;12.128;2023-02-27T02:49:42;0.23;;;0.20;;
23449;SDS011;11897;45.438;12.128;2023-02-27T02:52:13;0.20;;;0.20;;
23449;SDS011;11897;45.438;12.128;2023-02-27T02:54:42;0.30;;;0.30;;
23449;SDS011;11897;45.438;12.128;2023-02-27T02:57:15;0.30;;;0.30;;
23449;SDS011;11897;45.438;12.128;2023-02-27T02:59:44;0.30;;;0.30;;
23449;SDS011;11897;45.438;12.128;2023-02-27T03:02:15;0.20;;;0.20;;
23449;SDS011;11897;45.438;12.128;2023-02-27T03:04:43;0.30;;;0.30;;
23449;SDS011;11897;45.438;12.128;2023-02-27T03:07:12;0.30;;;0.30;;
23449;SDS011;11897;45.438;12.128;2023-02-27T03:09:41;0.30;;;0.30;;
23449;SDS011;11897;45.438;12.128;2023-02-27T03:12:11;0.10;;;0.10;;
23449;SDS011;11897;45.438;12.128;2023-02-27T03:14:40;0.20;;;0.20;;
23449;SDS011;11897;45.438;12.128;2023-02-27T03:17:13;0.20;;;0.20;;
23449;SDS011;11897;45.438;12.128;2023-02-27T03:19:45;0.30;;;0.30;;
23449;SDS011;11897;45.438;12.128;2023-02-27T03:22:18;0.30;;;0.30;;
23449;SDS011;11897;45.438;12.128;2023-02-27T03:24:48;0.20;;;0.20;;
23449;SDS011;11897;45.438;12.128;2023-02-27T03:27:21;0.20;;;0.20;;
23449;SDS011;11897;45.438;12.128;2023-02-27T03:29:51;0.40;;;0.40;;
23449;SDS011;11897;45.438;12.128;2023-02-27T03:32:21;0.57;;;0.30;;
23449;SDS011;11897;45.438;12.128;2023-02-27T03:34:57;0.27;;;0.27;;
23449;SDS011;11897;45.438;12.128;2023-02-27T03:37:28;0.30;;;0.30;;
23449;SDS011;11897;45.438;12.128;2023-02-27T03:39:59;0.20;;;0.20;;
23449;SDS011;11897;45.438;12.128;2023-02-27T03:42:32;0.20;;;0.20;;
23449;SDS011;11897;45.438;12.128;2023-02-27T03:45:15;0.20;;;0.20;;
23449;SDS011;11897;45.438;12.128;2023-02-27T03:47:45;0.10;;;0.10;;
23449;SDS011;11897;45.438;12.128;2023-02-27T03:50:13;0.30;;;0.20;;
23449;SDS011;11897;45.438;12.128;2023-02-27T03:52:40;0.20;;;0.20;;
23449;SDS011;11897;45.438;12.128;2023-02-27T03:55:08;0.20;;;0.20;;
23449;SDS011;11897;45.438;12.128;2023-02-27T03:57:38;1.33;;;0.40;;
23449;SDS011;11897;45.438;12.128;2023-02-27T04:00:07;0.87;;;0.50;;
23449;SDS011;11897;45.438;12.128;2023-02-27T04:02:40;0.30;;;0.30;;
23449;SDS011;11897;45.438;12.128;2023-02-27T04:05:10;0.30;;;0.30;;
23449;SDS011;11897;45.438;12.128;2023-02-27T04:07:44;0.67;;;0.30;;
23449;SDS011;11897;45.438;12.128;2023-02-27T04:10:19;0.30;;;0.30;;
23449;SDS011;11897;45.438;12.128;2023-02-27T04:12:53;0.20;;;0.20;;
23449;SDS011;11897;45.438;12.128;2023-02-27T04:15:26;0.23;;;0.23;;
23449;SDS011;11897;45.438;12.128;2023-02-27T04:17:55;0.20;;;0.20;;
23449;SDS011;11897;45.438;12.128;2023-02-27T04:20:33;0.30;;;0.30;;
23449;SDS011;11897;45.438;12.128;2023-02-27T04:23:05;0.20;;;0.20;;
23449;SDS011;11897;45.438;12.128;2023-02-27T04:25:37;1.30;;;0.37;;
23449;SDS011;11897;45.438;12.128;2023-02-27T04:28:10;0.30;;;0.30;;
23449;SDS011;11897;45.438;12.128;2023-02-27T04:30:41;0.50;;;0.37;;
23449;SDS011;11897;45.438;12.128;2023-02-27T04:33:11;0.90;;;0.53;;
23449;SDS011;11897;45.438;12.128;2023-02-27T04:35:40;2.53;;;0.30;;
23449;SDS011;11897;45.438;12.128;2023-02-27T04:38:12;0.30;;;0.20;;
23449;SDS011;11897;45.438;12.128;2023-02-27T04:40:42;1.00;;;0.40;;
23449;SDS011;11897;45.438;12.128;2023-02-27T04:43:16;0.20;;;0.20;;
23449;SDS011;11897;45.438;12.128;2023-02-27T04:45:45;0.50;;;0.50;;
23449;SDS011;11897;45.438;12.128;2023-02-27T04:48:13;0.30;;;0.30;;
23449;SDS011;11897;45.438;12.128;2023-02-27T04:50:42;0.20;;;0.20;;
23449;SDS011;11897;45.438;12.128;2023-02-27T04:53:15;0.33;;;0.20;;
23449;SDS011;11897;45.438;12.128;2023-02-27T04:55:45;2.40;;;0.60;;
23449;SDS011;11897;45.438;12.128;2023-02-27T04:58:18;0.50;;;0.50;;
23449;SDS011;11897;45.438;12.128;2023-02-27T05:00:48;0.30;;;0.30;;
23449;SDS011;11897;45.438;12.128;2023-02-27T05:03:17;0.23;;;0.20;;
23449;SDS011;11897;45.438;12.128;2023-02-27T05:05:45;0.93;;;0.30;;
23449;SDS011;11897;45.438;12.128;2023-02-27T05:08:14;0.83;;;0.20;;
23449;SDS011;11897;45.438;12.128;2023-02-27T05:10:44;0.30;;;0.30;;
23449;SDS011;11897;45.438;12.128;2023-02-27T05:13:12;0.80;;;0.30;;
23449;SDS011;11897;45.438;12.128;2023-02-27T05:15:42;2.53;;;0.20;;
23449;SDS011;11897;45.438;12.128;2023-02-27T05:18:11;1.03;;;0.30;;
23449;SDS011;11897;45.438;12.128;2023-02-27T05:20:42;0.40;;;0.40;;
23449;SDS011;11897;45.438;12.128;2023-02-27T05:23:13;0.23;;;0.23;;
23449;SDS011;11897;45.438;12.128;2023-02-27T05:25:43;0.60;;;0.50;;
23449;SDS011;11897;45.438;12.128;2023-02-27T05:28:12;0.30;;;0.20;;
23449;SDS011;11897;45.438;12.128;2023-02-27T05:30:43;0.23;;;0.23;;
23449;SDS011;11897;45.438;12.128;2023-02-27T05:33:16;0.30;;;0.30;;
23449;SDS011;11897;45.438;12.128;2023-02-27T05:35:46;0.23;;;0.20;;
23449;SDS011;11897;45.438;12.128;2023-02-27T05:38:19;0.47;;;0.40;;
23449;SDS011;11897;45.438;12.128;2023-02-27T05:40:46;0.20;;;0.20;;
23449;SDS011;11897;45.438;12.128;2023-02-27T05:43:18;0.33;;;0.33;;
23449;SDS011;11897;45.438;12.128;2023-02-27T05:45:51;0.40;;;0.30;;
23449;SDS011;11897;45.438;12.128;2023-02-27T05:48:19;0.30;;;0.30;;
23449;SDS011;11897;45.438;12.128;2023-02-27T05:50:47;0.37;;;0.23;;
23449;SDS011;11897;45.438;12.128;2023-02-27T05:53:16;0.30;;;0.20;;
23449;SDS011;11897;45.438;12.128;2023-02-27T05:55:45;0.20;;;0.20;;
23449;SDS011;11897;45.438;12.128;2023-02-27T05:58:14;0.73;;;0.30;;
23449;SDS011;11897;45.438;12.128;2023-02-27T06:00:42;0.30;;;0.30;;
23449;SDS011;11897;45.438;12.128;2023-02-27T06:03:11;0.50;;;0.40;;
23449;SDS011;11897;45.438;12.128;2023-02-27T06:05:38;0.93;;;0.73;;
23449;SDS011;11897;45.438;12.128;2023-02-27T06:08:06;1.27;;;0.90;;
23449;SDS011;11897;45.438;12.128;2023-02-27T06:10:33;6.90;;;1.00;;
23449;SDS011;11897;45.438;12.128;2023-02-27T06:13:00;3.60;;;1.00;;
23449;SDS011;11897;45.438;12.128;2023-02-27T06:15:26;5.20;;;1.77;;
23449;SDS011;11897;45.438;12.128;2023-02-27T06:17:53;7.90;;;1.60;;
23449;SDS011;11897;45.438;12.128;2023-02-27T06:20:22;0.70;;;0.53;;
23449;SDS011;11897;45.438;12.128;2023-02-27T06:22:48;1.80;;;1.07;;
23449;SDS011;11897;45.438;12.128;2023-02-27T06:25:15;0.73;;;0.67;;
23449;SDS011;11897;45.438;12.128;2023-02-27T06:27:42;0.30;;;0.30;;
23449;SDS011;11897;45.438;12.128;2023-02-27T06:30:09;0.20;;;0.20;;
23449;SDS011;11897;45.438;12.128;2023-02-27T06:32:38;0.33;;;0.30;;
23449;SDS011;11897;45.438;12.128;2023-02-27T06:35:05;0.30;;;0.30;;
23449;SDS011;11897;45.438;12.128;2023-02-27T06:37:34;0.40;;;0.40;;
23449;SDS011;11897;45.438;12.128;2023-02-27T06:40:01;0.73;;;0.57;;
23449;SDS011;11897;45.438;12.128;2023-02-27T06:42:30;0.50;;;0.37;;
23449;SDS011;11897;45.438;12.128;2023-02-27T06:44:57;1.57;;;0.70;;
23449;SDS011;11897;45.438;12.128;2023-02-27T06:47:24;0.40;;;0.40;;
23449;SDS011;11897;45.438;12.128;2023-02-27T06:49:52;0.40;;;0.30;;
23449;SDS011;11897;45.438;12.128;2023-02-27T06:52:18;1.63;;;0.40;;
23449;SDS011;11897;45.438;12.128;2023-02-27T06:54:46;1.23;;;0.40;;
23449;SDS011;11897;45.438;12.128;2023-02-27T06:57:13;0.90;;;0.40;;
23449;SDS011;11897;45.438;12.128;2023-02-27T06:59:40;0.83;;;0.50;;
23449;SDS011;11897;45.438;12.128;2023-02-27T07:02:08;0.47;;;0.43;;
23449;SDS011;11897;45.438;12.128;2023-02-27T07:04:36;0.30;;;0.30;;
23449;SDS011;11897;45.438;12.128;2023-02-27T07:07:03;0.83;;;0.70;;
23449;SDS011;11897;45.438;12.128;2023-02-27T07:09:30;0.60;;;0.40;;
23449;SDS011;11897;45.438;12.128;2023-02-27T07:11:58;0.60;;;0.50;;
23449;SDS011;11897;45.438;12.128;2023-02-27T07:14:25;2.10;;;1.33;;
23449;SDS011;11897;45.438;12.128;2023-02-27T07:16:55;2.10;;;0.40;;
23449;SDS011;11897;45.438;12.128;2023-02-27T07:19:22;0.60;;;0.50;;
23449;SDS011;11897;45.438;12.128;2023-02-27T07:21:50;0.37;;;0.33;;
23449;SDS011;11897;45.438;12.128;2023-02-27T07:24:16;0.40;;;0.40;;
23449;SDS011;11897;45.438;12.128;2023-02-27T07:26:43;0.50;;;0.50;;
23449;SDS011;11897;45.438;12.128;2023-02-27T07:29:11;5.30;;;0.80;;
23449;SDS011;11897;45.438;12.128;2023-02-27T07:31:39;0.43;;;0.30;;
23449;SDS011;11897;45.438;12.128;2023-02-27T07:34:05;0.40;;;0.40;;
23449;SDS011;11897;45.438;12.128;2023-02-27T07:36:33;0.47;;;0.47;;
23449;SDS011;11897;45.438;12.128;2023-02-27T07:39:00;1.60;;;0.53;;
23449;SDS011;11897;45.438;12.128;2023-02-27T07:41:29;7.10;;;0.50;;
23449;SDS011;11897;45.438;12.128;2023-02-27T07:43:58;0.30;;;0.30;;
23449;SDS011;11897;45.438;12.128;2023-02-27T07:46:26;2.47;;;0.80;;
23449;SDS011;11897;45.438;12.128;2023-02-27T07:48:57;0.53;;;0.40;;
23449;SDS011;11897;45.438;12.128;2023-02-27T07:51:25;0.53;;;0.40;;
23449;SDS011;11897;45.438;12.128;2023-02-27T07:53:54;1.13;;;0.70;;
23449;SDS011;11897;45.438;12.128;2023-02-27T07:56:21;0.40;;;0.40;;
23449;SDS011;11897;45.438;12.128;2023-02-27T07:58:50;0.77;;;0.40;;
23449;SDS011;11897;45.438;12.128;2023-02-27T08:01:16;0.93;;;0.53;;
23449;SDS011;11897;45.438;12.128;2023-02-27T08:03:45;3.37;;;0.60;;
23449;SDS011;11897;45.438;12.128;2023-02-27T08:06:12;0.87;;;0.73;;
23449;SDS011;11897;45.438;12.128;2023-02-27T08:08:39;0.73;;;0.50;;
23449;SDS011;11897;45.438;12.128;2023-02-27T08:11:06;0.83;;;0.57;;
23449;SDS011;11897;45.438;12.128;2023-02-27T08:13:32;0.50;;;0.50;;
23449;SDS011;11897;45.438;12.128;2023-02-27T08:15:59;0.60;;;0.50;;
23449;SDS011;11897;45.438;12.128;2023-02-27T08:18:26;0.30;;;0.30;;
23449;SDS011;11897;45.438;12.128;2023-02-27T08:20:55;0.40;;;0.37;;
23449;SDS011;11897;45.438;12.128;2023-02-27T08:23:22;1.00;;;0.57;;
23449;SDS011;11897;45.438;12.128;2023-02-27T08:25:48;0.67;;;0.47;;
23449;SDS011;11897;45.438;12.128;2023-02-27T08:28:15;4.20;;;1.00;;
23449;SDS011;11897;45.438;12.128;2023-02-27T08:30:42;0.93;;;0.80;;
23449;SDS011;11897;45.438;12.128;2023-02-27T08:33:09;0.67;;;0.63;;
23449;SDS011;11897;45.438;12.128;2023-02-27T08:35:36;0.70;;;0.50;;
23449;SDS011;11897;45.438;12.128;2023-02-27T08:38:04;2.17;;;0.67;;
23449;SDS011;11897;45.438;12.128;2023-02-27T08:40:31;0.87;;;0.30;;
23449;SDS011;11897;45.438;12.128;2023-02-27T08:42:58;0.50;;;0.50;;
23449;SDS011;11897;45.438;12.128;2023-02-27T08:45:25;7.57;;;0.57;;
23449;SDS011;11897;45.438;12.128;2023-02-27T08:47:52;0.23;;;0.23;;
23449;SDS011;11897;45.438;12.128;2023-02-27T08:50:19;0.30;;;0.30;;
23449;SDS011;11897;45.438;12.128;2023-02-27T08:52:45;1.57;;;0.40;;
23449;SDS011;11897;45.438;12.128;2023-02-27T08:55:18;0.47;;;0.47;;
23449;SDS011;11897;45.438;12.128;2023-02-27T08:57:45;0.60;;;0.37;;
23449;SDS011;11897;45.438;12.128;2023-02-27T09:00:13;0.50;;;0.40;;
23449;SDS011;11897;45.438;12.128;2023-02-27T09:02:41;0.93;;;0.50;;
23449;SDS011;11897;45.438;12.128;2023-02-27T09:05:08;0.60;;;0.40;;
23449;SDS011;11897;45.438;12.128;2023-02-27T09:07:35;0.50;;;0.30;;
23449;SDS011;11897;45.438;12.128;2023-02-27T09:10:04;0.50;;;0.30;;
23449;SDS011;11897;45.438;12.128;2023-02-27T09:12:33;0.47;;;0.37;;
23449;SDS011;11897;45.438;12.128;2023-02-27T09:15:00;1.47;;;1.10;;
23449;SDS011;11897;45.438;12.128;2023-02-27T09:17:27;1.13;;;0.70;;
23449;SDS011;11897;45.438;12.128;2023-02-27T09:19:53;0.53;;;0.53;;
23449;SDS011;11897;45.438;12.128;2023-02-27T09:22:20;0.40;;;0.40;;
23449;SDS011;11897;45.438;12.128;2023-02-27T09:24:47;0.40;;;0.30;;
23449;SDS011;11897;45.438;12.128;2023-02-27T09:27:14;0.40;;;0.40;;
23449;SDS011;11897;45.438;12.128;2023-02-27T09:29:43;0.60;;;0.40;;
23449;SDS011;11897;45.438;12.128;2023-02-27T09:32:09;0.70;;;0.50;;
23449;SDS011;11897;45.438;12.128;2023-02-27T09:34:36;0.83;;;0.50;;
23449;SDS011;11897;45.438;12.128;2023-02-27T09:37:03;0.50;;;0.40;;
23449;SDS011;11897;45.438;12.128;2023-02-27T09:39:30;0.97;;;0.50;;
23449;SDS011;11897;45.438;12.128;2023-02-27T09:41:58;0.73;;;0.30;;
23449;SDS011;11897;45.438;12.128;2023-02-27T09:44:29;1.33;;;0.73;;
23449;SDS011;11897;45.438;12.128;2023-02-27T09:46:58;0.73;;;0.53;;
23449;SDS011;11897;45.438;12.128;2023-02-27T09:49:27;1.03;;;0.30;;
23449;SDS011;11897;45.438;12.128;2023-02-27T09:51:57;1.70;;;0.47;;
23449;SDS011;11897;45.438;12.128;2023-02-27T09:54:24;0.80;;;0.47;;
23449;SDS011;11897;45.438;12.128;2023-02-27T09:56:53;0.47;;;0.40;;
23449;SDS011;11897;45.438;12.128;2023-02-27T09:59:25;0.47;;;0.47;;
23449;SDS011;11897;45.438;12.128;2023-02-27T10:01:56;0.33;;;0.30;;
23449;SDS011;11897;45.438;12.128;2023-02-27T10:04:28;0.70;;;0.50;;
23449;SDS011;11897;45.438;12.128;2023-02-27T10:06:56;0.97;;;0.87;;
23449;SDS011;11897;45.438;12.128;2023-02-27T10:09:28;0.73;;;0.50;;
23449;SDS011;11897;45.438;12.128;2023-02-27T10:14:41;1.20;;;0.30;;
23449;SDS011;11897;45.438;12.128;2023-02-27T10:17:12;5.63;;;0.60;;
23449;SDS011;11897;45.438;12.128;2023-02-27T10:19:42;0.40;;;0.40;;
23449;SDS011;11897;45.438;12.128;2023-02-27T10:22:10;1.30;;;0.70;;
23449;SDS011;11897;45.438;12.128;2023-02-27T10:24:39;2.40;;;0.60;;
23449;SDS011;11897;45.438;12.128;2023-02-27T10:27:11;0.80;;;0.80;;
23449;SDS011;11897;45.438;12.128;2023-02-27T10:29:39;0.50;;;0.50;;
23449;SDS011;11897;45.438;12.128;2023-02-27T10:32:09;1.80;;;0.47;;
23449;SDS011;11897;45.438;12.128;2023-02-27T10:34:38;0.57;;;0.47;;
23449;SDS011;11897;45.438;12.128;2023-02-27T10:37:06;0.47;;;0.40;;
23449;SDS011;11897;45.438;12.128;2023-02-27T10:39:38;1.57;;;0.60;;
23449;SDS011;11897;45.438;12.128;2023-02-27T10:42:08;1.77;;;0.87;;
23449;SDS011;11897;45.438;12.128;2023-02-27T10:44:37;0.67;;;0.60;;
23449;SDS011;11897;45.438;12.128;2023-02-27T10:47:04;1.83;;;0.60;;
23449;SDS011;11897;45.438;12.128;2023-02-27T10:49:31;1.37;;;1.07;;
23449;SDS011;11897;45.438;12.128;2023-02-27T10:52:07;0.67;;;0.60;;
23449;SDS011;11897;45.438;12.128;2023-02-27T10:54:35;0.70;;;0.60;;
23449;SDS011;11897;45.438;12.128;2023-02-27T10:57:03;0.40;;;0.40;;
23449;SDS011;11897;45.438;12.128;2023-02-27T10:59:31;0.87;;;0.77;;
23449;SDS011;11897;45.438;12.128;2023-02-27T11:01:59;1.23;;;0.73;;
23449;SDS011;11897;45.438;12.128;2023-02-27T11:04:31;0.43;;;0.43;;
23449;SDS011;11897;45.438;12.128;2023-02-27T11:06:59;0.80;;;0.67;;
23449;SDS011;11897;45.438;12.128;2023-02-27T11:09:28;1.57;;;0.70;;
23449;SDS011;11897;45.438;12.128;2023-02-27T11:12:08;0.60;;;0.60;;
23449;SDS011;11897;45.438;12.128;2023-02-27T11:14:37;0.33;;;0.30;;
23449;SDS011;11897;45.438;12.128;2023-02-27T11:17:19;0.70;;;0.57;;
23449;SDS011;11897;45.438;12.128;2023-02-27T11:19:46;1.13;;;0.63;;
23449;SDS011;11897;45.438;12.128;2023-02-27T11:22:14;0.63;;;0.60;;
23449;SDS011;11897;45.438;12.128;2023-02-27T11:24:43;0.80;;;0.50;;
23449;SDS011;11897;45.438;12.128;2023-02-27T11:27:17;0.87;;;0.50;;
23449;SDS011;11897;45.438;12.128;2023-02-27T11:29:54;0.63;;;0.50;;
23449;SDS011;11897;45.438;12.128;2023-02-27T11:32:21;0.77;;;0.40;;
23449;SDS011;11897;45.438;12.128;2023-02-27T11:34:48;0.93;;;0.63;;
23449;SDS011;11897;45.438;12.128;2023-02-27T11:37:18;1.50;;;0.70;;
23449;SDS011;11897;45.438;12.128;2023-02-27T11:39:49;1.33;;;0.40;;
23449;SDS011;11897;45.438;12.128;2023-02-27T11:42:17;2.20;;;0.40;;
23449;SDS011;11897;45.438;12.128;2023-02-27T11:44:49;0.60;;;0.40;;
23449;SDS011;11897;45.438;12.128;2023-02-27T11:47:18;1.00;;;0.50;;
23449;SDS011;11897;45.438;12.128;2023-02-27T11:50:00;1.23;;;0.67;;
23449;SDS011;11897;45.438;12.128;2023-02-27T11:52:29;8.43;;;0.70;;
23449;SDS011;11897;45.438;12.128;2023-02-27T11:54:59;1.63;;;0.80;;
23449;SDS011;11897;45.438;12.128;2023-02-27T11:57:28;0.60;;;0.60;;
23449;SDS011;11897;45.438;12.128;2023-02-27T11:59:57;1.13;;;1.03;;
23449;SDS011;11897;45.438;12.128;2023-02-27T12:02:32;2.33;;;1.00;;
23449;SDS011;11897;45.438;12.128;2023-02-27T12:05:05;3.60;;;0.90;;
23449;SDS011;11897;45.438;12.128;2023-02-27T12:07:37;1.20;;;0.60;;
23449;SDS011;11897;45.438;12.128;2023-02-27T12:10:10;1.90;;;0.77;;
23449;SDS011;11897;45.438;12.128;2023-02-27T12:12:41;1.33;;;0.70;;
23449;SDS011;11897;45.438;12.128;2023-02-27T12:15:14;1.23;;;0.70;;
23449;SDS011;11897;45.438;12.128;2023-02-27T12:17:46;0.73;;;0.67;;
23449;SDS011;11897;45.438;12.128;2023-02-27T12:20:27;2.27;;;0.80;;
23449;SDS011;11897;45.438;12.128;2023-02-27T12:22:55;0.97;;;0.60;;
23449;SDS011;11897;45.438;12.128;2023-02-27T12:25:29;0.90;;;0.90;;
23449;SDS011;11897;45.438;12.128;2023-02-27T12:27:59;1.63;;;0.83;;
23449;SDS011;11897;45.438;12.128;2023-02-27T12:30:28;0.67;;;0.67;;
23449;SDS011;11897;45.438;12.128;2023-02-27T12:32:59;5.10;;;1.03;;
23449;SDS011;11897;45.438;12.128;2023-02-27T12:35:28;0.90;;;0.60;;
23449;SDS011;11897;45.438;12.128;2023-02-27T12:37:57;2.03;;;1.33;;
23449;SDS011;11897;45.438;12.128;2023-02-27T12:40:24;2.33;;;0.90;;
23449;SDS011;11897;45.438;12.128;2023-02-27T12:43:02;2.10;;;0.87;;
23449;SDS011;11897;45.438;12.128;2023-02-27T12:45:50;2.03;;;1.20;;
23449;SDS011;11897;45.438;12.128;2023-02-27T12:48:22;1.73;;;0.87;;
23449;SDS011;11897;45.438;12.128;2023-02-27T12:50:52;2.03;;;0.90;;
23449;SDS011;11897;45.438;12.128;2023-02-27T12:56:08;2.27;;;0.70;;
23449;SDS011;11897;45.438;12.128;2023-02-27T12:58:41;2.13;;;0.80;;
23449;SDS011;11897;45.438;12.128;2023-02-27T13:01:14;1.33;;;0.97;;
23449;SDS011;11897;45.438;12.128;2023-02-27T13:03:44;1.70;;;0.90;;
23449;SDS011;11897;45.438;12.128;2023-02-27T13:06:15;1.93;;;0.93;;
23449;SDS011;11897;45.438;12.128;2023-02-27T13:08:59;1.17;;;0.80;;
23449;SDS011;11897;45.438;12.128;2023-02-27T13:11:34;0.60;;;0.60;;
23449;SDS011;11897;45.438;12.128;2023-02-27T13:14:06;0.80;;;0.60;;
23449;SDS011;11897;45.438;12.128;2023-02-27T13:16:40;0.97;;;0.80;;
23449;SDS011;11897;45.438;12.128;2023-02-27T13:19:09;5.27;;;0.83;;
23449;SDS011;11897;45.438;12.128;2023-02-27T13:21:39;1.20;;;0.70;;
23449;SDS011;11897;45.438;12.128;2023-02-27T13:24:11;3.13;;;0.87;;
23449;SDS011;11897;45.438;12.128;2023-02-27T13:26:42;1.43;;;0.70;;
23449;SDS011;11897;45.438;12.128;2023-02-27T13:29:13;4.43;;;1.00;;
23449;SDS011;11897;45.438;12.128;2023-02-27T13:31:42;1.10;;;1.00;;
23449;SDS011;11897;45.438;12.128;2023-02-27T13:34:13;5.53;;;1.37;;
23449;SDS011;11897;45.438;12.128;2023-02-27T13:36:43;2.67;;;1.33;;
23449;SDS011;11897;45.438;12.128;2023-02-27T13:41:55;1.33;;;0.63;;
23449;SDS011;11897;45.438;12.128;2023-02-27T13:52:54;3.53;;;0.70;;
23449;SDS011;11897;45.438;12.128;2023-02-27T13:55:25;1.33;;;0.80;;
23449;SDS011;11897;45.438;12.128;2023-02-27T13:57:52;1.70;;;1.10;;
23449;SDS011;11897;45.438;12.128;2023-02-27T14:00:20;1.50;;;0.77;;
23449;SDS011;11897;45.438;12.128;2023-02-27T14:02:50;12.73;;;1.00;;
23449;SDS011;11897;45.438;12.128;2023-02-27T14:05:24;1.17;;;0.67;;
23449;SDS011;11897;45.438;12.128;2023-02-27T14:07:57;3.67;;;1.70;;
23449;SDS011;11897;45.438;12.128;2023-02-27T14:10:32;5.17;;;0.90;;
23449;SDS011;11897;45.438;12.128;2023-02-27T14:12:59;3.70;;;0.70;;
23449;SDS011;11897;45.438;12.128;2023-02-27T14:20:53;1.70;;;0.77;;
23449;SDS011;11897;45.438;12.128;2023-02-27T14:23:21;2.83;;;1.03;;
23449;SDS011;11897;45.438;12.128;2023-02-27T14:25:50;1.23;;;0.90;;
23449;SDS011;11897;45.438;12.128;2023-02-27T14:28:20;3.03;;;1.30;;
23449;SDS011;11897;45.438;12.128;2023-02-27T14:30:52;2.00;;;0.93;;
23449;SDS011;11897;45.438;12.128;2023-02-27T14:33:21;1.27;;;1.17;;
23449;SDS011;11897;45.438;12.128;2023-02-27T14:35:50;4.90;;;0.90;;
23449;SDS011;11897;45.438;12.128;2023-02-27T14:38:18;1.33;;;0.97;;
23449;SDS011;11897;45.438;12.128;2023-02-27T14:40:54;7.23;;;1.20;;
23449;SDS011;11897;45.438;12.128;2023-02-27T14:43:28;7.07;;;1.10;;
23449;SDS011;11897;45.438;12.128;2023-02-27T14:46:03;1.23;;;0.90;;
23449;SDS011;11897;45.438;12.128;2023-02-27T14:48:31;2.17;;;1.17;;
23449;SDS011;11897;45.438;12.128;2023-02-27T14:50:59;1.10;;;0.90;;
23449;SDS011;11897;45.438;12.128;2023-02-27T14:53:27;1.30;;;1.13;;
23449;SDS011;11897;45.438;12.128;2023-02-27T14:55:56;2.90;;;1.43;;
23449;SDS011;11897;45.438;12.128;2023-02-27T14:58:24;3.13;;;1.20;;
23449;SDS011;11897;45.438;12.128;2023-02-27T15:01:02;1.50;;;0.87;;
23449;SDS011;11897;45.438;12.128;2023-02-27T15:03:34;2.00;;;1.00;;
23449;SDS011;11897;45.438;12.128;2023-02-27T15:06:02;2.97;;;1.10;;
23449;SDS011;11897;45.438;12.128;2023-02-27T15:08:30;1.57;;;1.10;;
23449;SDS011;11897;45.438;12.128;2023-02-27T15:10:59;5.17;;;1.37;;
23449;SDS011;11897;45.438;12.128;2023-02-27T15:13:26;2.40;;;0.90;;
23449;SDS011;11897;45.438;12.128;2023-02-27T15:18:35;1.83;;;1.23;;
23449;SDS011;11897;45.438;12.128;2023-02-27T15:21:04;2.97;;;1.53;;